createdAt,value
2017-07-03T00:01:24.166Z,16.70
2017-07-03T00:03:51.655Z,16.70
2017-07-03T00:06:19.130Z,16.70
2017-07-03T00:08:46.623Z,16.70
2017-07-03T00:11:14.104Z,16.70
2017-07-03T00:13:41.590Z,16.80
2017-07-03T00:16:09.071Z,16.70
2017-07-03T00:18:36.546Z,16.80
2017-07-03T00:21:04.035Z,16.70
2017-07-03T00:23:32.283Z,16.70
2017-07-03T00:25:59.770Z,16.70
2017-07-03T00:28:28.015Z,16.70
2017-07-03T00:30:55.521Z,16.70
2017-07-03T00:33:23.001Z,16.70
2017-07-03T00:35:50.494Z,16.70
2017-07-03T00:38:17.975Z,16.70
2017-07-03T00:40:45.476Z,16.60
2017-07-03T00:43:12.951Z,16.50
2017-07-03T00:45:40.448Z,16.40
2017-07-03T00:48:07.945Z,16.50
2017-07-03T00:50:35.439Z,16.40
2017-07-03T00:53:02.915Z,16.30
2017-07-03T00:55:30.947Z,16.30
2017-07-03T00:57:58.447Z,16.20
2017-07-03T01:00:25.923Z,16.10
2017-07-03T01:02:53.414Z,16.10
2017-07-03T01:05:20.890Z,16.10
2017-07-03T01:07:48.390Z,16.10
2017-07-03T01:10:15.867Z,16.10
2017-07-03T01:12:43.356Z,16.00
2017-07-03T01:15:10.839Z,16.00
2017-07-03T01:17:38.334Z,16.00
2017-07-03T01:20:05.810Z,15.90
2017-07-03T01:22:33.306Z,15.90
2017-07-03T01:25:00.788Z,15.80
2017-07-03T01:27:28.290Z,15.80
2017-07-03T01:29:55.760Z,15.70
2017-07-03T01:32:24.006Z,15.60
2017-07-03T01:34:51.494Z,15.70
2017-07-03T01:37:19.733Z,15.70
2017-07-03T01:39:47.223Z,15.70
2017-07-03T01:42:14.702Z,15.70
2017-07-03T01:44:42.195Z,15.70
2017-07-03T01:47:09.669Z,15.60
2017-07-03T01:49:37.163Z,15.60
2017-07-03T01:52:04.635Z,15.60
2017-07-03T01:54:32.131Z,15.60
2017-07-03T01:56:59.606Z,15.50
2017-07-03T01:59:27.862Z,15.40
2017-07-03T02:01:55.331Z,15.30
2017-07-03T02:04:22.831Z,15.40
2017-07-03T02:06:50.312Z,15.30
2017-07-03T02:09:17.791Z,15.30
2017-07-03T02:11:45.281Z,15.40
2017-07-03T02:14:12.759Z,15.40
2017-07-03T02:16:40.259Z,15.30
2017-07-03T02:19:07.735Z,15.30
2017-07-03T02:21:35.995Z,15.20
2017-07-03T02:24:03.474Z,15.20
2017-07-03T02:26:30.998Z,15.10
2017-07-03T02:28:58.470Z,15.10
2017-07-03T02:31:26.710Z,15.10
2017-07-03T02:33:54.207Z,15.10
2017-07-03T02:36:23.298Z,15.20
2017-07-03T02:38:51.560Z,15.20
2017-07-03T02:41:19.034Z,15.20
2017-07-03T02:43:47.311Z,15.20
2017-07-03T02:46:15.550Z,15.10
2017-07-03T02:48:43.043Z,15.00
2017-07-03T02:51:11.286Z,15.00
2017-07-03T02:53:38.774Z,15.00
2017-07-03T02:56:07.043Z,14.90
2017-07-03T02:58:35.298Z,14.80
2017-07-03T03:01:02.771Z,14.80
2017-07-03T03:03:31.031Z,14.70
2017-07-03T03:05:58.526Z,14.70
2017-07-03T03:08:26.039Z,14.70
2017-07-03T03:10:53.523Z,14.70
2017-07-03T03:13:21.022Z,14.70
2017-07-03T03:15:48.506Z,14.80
2017-07-03T03:18:16.031Z,14.80
2017-07-03T03:20:43.518Z,14.90
2017-07-03T03:23:10.992Z,14.80
2017-07-03T03:25:38.487Z,14.80
2017-07-03T03:28:05.975Z,14.80
2017-07-03T03:30:33.479Z,14.80
2017-07-03T03:33:00.966Z,14.80
2017-07-03T03:35:28.459Z,14.80
2017-07-03T03:37:55.938Z,14.90
2017-07-03T03:40:24.201Z,15.00
2017-07-03T03:42:52.447Z,15.00
2017-07-03T03:45:19.942Z,15.10
2017-07-03T03:47:48.190Z,14.90
2017-07-03T03:50:15.672Z,14.90
2017-07-03T03:52:43.939Z,14.90
2017-07-03T03:55:12.194Z,14.80
2017-07-03T03:57:39.688Z,14.80
2017-07-03T04:00:07.168Z,14.80
2017-07-03T04:02:34.655Z,14.90
2017-07-03T04:05:02.154Z,14.90
2017-07-03T04:07:29.650Z,15.00
2017-07-03T04:09:57.127Z,14.90
2017-07-03T04:12:24.622Z,14.90
2017-07-03T04:14:52.108Z,14.90
2017-07-03T04:17:19.607Z,14.80
2017-07-03T04:19:47.087Z,14.80
2017-07-03T04:22:14.623Z,14.80
2017-07-03T04:24:42.110Z,14.80
2017-07-03T04:27:09.613Z,14.80
2017-07-03T04:29:37.114Z,14.80
2017-07-03T04:32:05.368Z,14.90
2017-07-03T04:34:32.866Z,14.80
2017-07-03T04:37:00.350Z,15.00
2017-07-03T04:39:27.850Z,15.00
2017-07-03T04:41:55.331Z,15.10
2017-07-03T04:44:22.822Z,15.10
2017-07-03T04:46:50.291Z,15.20
2017-07-03T04:49:17.803Z,15.30
2017-07-03T04:51:45.280Z,15.40
2017-07-03T04:54:12.754Z,15.30
2017-07-03T04:56:40.249Z,15.30
2017-07-03T04:59:08.498Z,15.40
2017-07-03T05:01:35.998Z,15.40
2017-07-03T05:04:03.483Z,15.40
2017-07-03T05:06:30.970Z,15.40
2017-07-03T05:08:58.442Z,15.40
2017-07-03T05:11:26.710Z,15.50
2017-07-03T05:13:54.955Z,15.70
2017-07-03T05:16:22.446Z,15.70
2017-07-03T05:18:50.692Z,15.80
2017-07-03T05:21:18.187Z,15.80
2017-07-03T05:23:46.451Z,15.80
2017-07-03T05:26:14.695Z,15.80
2017-07-03T05:28:42.186Z,15.70
2017-07-03T05:31:10.425Z,15.90
2017-07-03T05:33:37.923Z,15.90
2017-07-03T05:36:05.398Z,15.90
2017-07-03T05:38:32.900Z,16.10
2017-07-03T05:41:00.376Z,16.20
2017-07-03T05:43:33.647Z,16.30
2017-07-03T05:46:01.126Z,16.30
2017-07-03T05:48:28.630Z,16.20
2017-07-03T05:50:56.106Z,16.20
2017-07-03T05:53:23.598Z,16.30
2017-07-03T05:55:51.843Z,16.60
2017-07-03T05:58:19.338Z,16.50
2017-07-03T06:00:47.590Z,17.10
2017-07-03T06:03:15.072Z,17.00
2017-07-03T06:05:42.570Z,17.40
2017-07-03T06:08:10.050Z,17.60
2017-07-03T06:10:37.538Z,17.70
2017-07-03T06:13:05.783Z,18.00
2017-07-03T06:15:33.281Z,17.90
2017-07-03T06:18:01.526Z,18.90
2017-07-03T06:20:29.014Z,18.90
2017-07-03T06:22:56.507Z,19.50
2017-07-03T06:25:23.991Z,20.60
2017-07-03T06:27:51.474Z,21.90
2017-07-03T06:30:19.727Z,21.00
2017-07-03T06:32:47.198Z,20.90
2017-07-03T06:35:15.437Z,22.30
2017-07-03T06:37:42.926Z,22.20
2017-07-03T06:40:10.398Z,23.30
2017-07-03T06:42:38.660Z,23.10
2017-07-03T06:45:06.127Z,23.00
2017-07-03T06:47:33.619Z,21.80
2017-07-03T06:50:01.090Z,20.90
2017-07-03T06:52:28.583Z,20.40
2017-07-03T06:54:56.058Z,20.20
2017-07-03T06:57:23.550Z,20.20
2017-07-03T06:59:51.112Z,20.00
2017-07-03T07:02:18.587Z,19.90
2017-07-03T07:04:46.074Z,20.10
2017-07-03T07:07:14.310Z,19.90
2017-07-03T07:09:41.807Z,19.80
2017-07-03T07:12:10.042Z,19.80
2017-07-03T07:14:38.350Z,19.80
2017-07-03T07:17:06.586Z,18.80
2017-07-03T07:19:34.091Z,18.80
2017-07-03T07:22:02.330Z,20.30
2017-07-03T07:24:29.828Z,20.30
2017-07-03T07:26:57.308Z,20.40
2017-07-03T07:29:24.795Z,19.80
2017-07-03T07:31:52.270Z,19.50
2017-07-03T07:34:19.763Z,19.40
2017-07-03T07:36:47.242Z,19.00
2017-07-03T07:39:14.736Z,19.50
2017-07-03T07:41:42.210Z,19.60
2017-07-03T07:44:09.727Z,19.80
2017-07-03T07:46:37.206Z,19.70
2017-07-03T07:49:04.684Z,19.70
2017-07-03T07:51:32.170Z,19.60
2017-07-03T07:53:59.642Z,19.60
2017-07-03T07:56:27.130Z,19.70
2017-07-03T07:58:54.613Z,19.70
2017-07-03T08:01:22.119Z,19.70
2017-07-03T08:03:49.600Z,19.70
2017-07-03T08:06:17.102Z,20.00
2017-07-03T08:08:44.581Z,20.00
2017-07-03T08:11:12.088Z,20.10
2017-07-03T08:13:40.330Z,19.80
2017-07-03T08:16:07.822Z,19.80
2017-07-03T08:18:35.296Z,19.90
2017-07-03T08:21:02.793Z,20.10
2017-07-03T08:23:30.271Z,20.20
2017-07-03T08:25:57.764Z,19.90
2017-07-03T08:28:25.250Z,19.60
2017-07-03T08:30:52.722Z,19.70
2017-07-03T08:33:20.239Z,20.00
2017-07-03T08:35:47.715Z,21.30
2017-07-03T08:38:15.202Z,22.80
2017-07-03T08:40:42.669Z,23.30
2017-07-03T08:43:10.150Z,23.10
2017-07-03T08:45:38.390Z,22.30
2017-07-03T08:48:05.881Z,22.30
2017-07-03T08:50:34.122Z,22.10
2017-07-03T08:53:01.614Z,22.10
2017-07-03T08:55:29.854Z,22.10
2017-07-03T08:57:57.342Z,22.10
2017-07-03T09:00:25.591Z,22.10
2017-07-03T09:02:53.067Z,22.10
2017-07-03T09:05:21.330Z,21.50
2017-07-03T09:07:48.802Z,21.50
2017-07-03T09:10:17.054Z,23.90
2017-07-03T09:12:44.524Z,23.80
2017-07-03T09:15:12.017Z,25.00
2017-07-03T09:17:39.487Z,25.10
2017-07-03T09:20:06.982Z,24.30
2017-07-03T09:22:34.458Z,23.30
2017-07-03T09:25:01.982Z,22.40
2017-07-03T09:27:29.459Z,23.10
2017-07-03T09:29:56.947Z,24.00
2017-07-03T09:32:24.421Z,23.90
2017-07-03T09:34:51.917Z,24.60
2017-07-03T09:37:19.390Z,25.90
2017-07-03T09:39:47.638Z,25.80
2017-07-03T09:42:15.131Z,25.80
2017-07-03T09:44:43.372Z,26.70
2017-07-03T09:47:10.874Z,26.70
2017-07-03T09:49:38.347Z,26.40
2017-07-03T09:52:05.840Z,26.30
2017-07-03T09:54:33.311Z,27.20
2017-07-03T09:57:00.802Z,28.00
2017-07-03T09:59:28.277Z,28.40
2017-07-03T10:01:55.776Z,28.00
2017-07-03T10:04:23.268Z,28.60
2017-07-03T10:06:50.759Z,28.00
2017-07-03T10:09:18.226Z,27.20
2017-07-03T10:11:45.722Z,26.20
2017-07-03T10:14:13.953Z,26.80
2017-07-03T10:16:41.461Z,26.70
2017-07-03T10:19:08.942Z,26.80
2017-07-03T10:21:36.415Z,27.60
2017-07-03T10:24:03.899Z,27.30
2017-07-03T10:26:31.390Z,26.40
2017-07-03T10:28:58.923Z,26.80
2017-07-03T10:31:27.167Z,27.30
2017-07-03T10:33:54.663Z,27.20
2017-07-03T10:36:22.231Z,27.50
2017-07-03T10:38:49.724Z,27.90
2017-07-03T10:41:17.195Z,28.40
2017-07-03T10:43:44.686Z,27.90
2017-07-03T10:46:12.155Z,27.00
2017-07-03T10:48:39.631Z,26.70
2017-07-03T10:51:07.135Z,27.00
2017-07-03T10:53:34.613Z,27.60
2017-07-03T10:56:02.121Z,27.80
2017-07-03T10:58:29.604Z,27.90
2017-07-03T11:00:57.866Z,28.00
2017-07-03T11:03:25.351Z,27.90
2017-07-03T11:05:52.848Z,27.60
2017-07-03T11:08:20.325Z,27.00
2017-07-03T11:10:47.799Z,27.10
2017-07-03T11:13:16.060Z,26.60
2017-07-03T11:15:44.294Z,26.00
2017-07-03T11:18:11.779Z,26.00
2017-07-03T11:20:39.255Z,26.30
2017-07-03T11:23:06.754Z,26.30
2017-07-03T11:25:34.222Z,25.30
2017-07-03T11:28:01.711Z,25.50
2017-07-03T11:30:29.957Z,26.10
2017-07-03T11:32:57.455Z,26.10
2017-07-03T11:35:24.935Z,26.20
2017-07-03T11:37:52.445Z,26.80
2017-07-03T11:40:20.690Z,26.20
2017-07-03T11:42:48.178Z,26.20
2017-07-03T11:45:16.436Z,26.60
2017-07-03T11:47:43.906Z,26.60
2017-07-03T11:50:12.167Z,27.10
2017-07-03T11:52:39.636Z,27.10
2017-07-03T11:55:07.886Z,27.90
2017-07-03T11:57:35.354Z,27.90
2017-07-03T12:00:02.839Z,28.00
2017-07-03T12:02:30.307Z,26.80
2017-07-03T12:04:57.803Z,27.60
2017-07-03T12:07:25.280Z,28.20
2017-07-03T12:09:53.542Z,28.20
2017-07-03T12:12:21.791Z,28.60
2017-07-03T12:14:49.278Z,28.60
2017-07-03T12:17:17.514Z,27.80
2017-07-03T12:19:45.003Z,27.70
2017-07-03T12:22:13.246Z,27.90
2017-07-03T12:24:40.750Z,27.90
2017-07-03T12:27:08.224Z,27.40
2017-07-03T12:29:35.695Z,27.90
2017-07-03T12:32:03.179Z,27.40
2017-07-03T12:34:30.662Z,27.30
2017-07-03T12:36:58.920Z,27.90
2017-07-03T12:39:27.150Z,27.80
2017-07-03T12:41:54.659Z,27.80
2017-07-03T12:44:22.899Z,27.40
2017-07-03T12:46:50.386Z,27.40
2017-07-03T12:49:18.669Z,25.90
2017-07-03T12:51:46.162Z,25.90
2017-07-03T12:54:13.643Z,25.60
2017-07-03T12:56:41.163Z,25.70
2017-07-03T12:59:08.632Z,26.00
2017-07-03T13:01:36.142Z,26.30
2017-07-03T13:04:03.610Z,26.20
2017-07-03T13:06:31.090Z,25.80
2017-07-03T13:08:58.574Z,25.60
2017-07-03T13:11:26.047Z,25.80
2017-07-03T13:13:53.548Z,26.30
2017-07-03T13:16:21.023Z,25.90
2017-07-03T13:18:48.511Z,25.60
2017-07-03T13:21:16.752Z,25.30
2017-07-03T13:23:44.236Z,25.30
2017-07-03T13:26:12.474Z,26.20
2017-07-03T13:28:39.966Z,26.20
2017-07-03T13:31:08.208Z,27.20
2017-07-03T13:33:35.700Z,27.10
2017-07-03T13:36:03.963Z,27.60
2017-07-03T13:38:32.219Z,27.90
2017-07-03T13:40:59.698Z,27.90
2017-07-03T13:43:27.954Z,28.30
2017-07-03T13:45:55.426Z,28.30
2017-07-03T13:48:22.929Z,28.50
2017-07-03T13:50:50.541Z,28.60
2017-07-03T13:53:19.676Z,28.30
2017-07-03T13:55:47.212Z,28.30
2017-07-03T13:58:14.694Z,27.80
2017-07-03T14:00:42.178Z,28.00
2017-07-03T14:03:10.454Z,28.00
2017-07-03T14:05:37.959Z,28.50
2017-07-03T14:08:05.430Z,28.00
2017-07-03T14:10:32.935Z,27.70
2017-07-03T14:13:01.188Z,27.00
2017-07-03T14:15:28.678Z,27.00
2017-07-03T14:17:56.157Z,26.40
2017-07-03T14:20:23.654Z,25.70
2017-07-03T14:22:51.127Z,25.80
2017-07-03T14:25:18.618Z,25.70
2017-07-03T14:27:46.091Z,26.10
2017-07-03T14:30:13.599Z,26.70
2017-07-03T14:32:41.082Z,26.80
2017-07-03T14:35:08.575Z,27.60
2017-07-03T14:37:36.053Z,27.70
2017-07-03T14:40:04.308Z,28.30
2017-07-03T14:42:31.778Z,28.20
2017-07-03T14:45:00.039Z,28.40
2017-07-03T14:47:27.540Z,28.30
2017-07-03T14:49:55.039Z,28.50
2017-07-03T14:52:22.516Z,28.60
2017-07-03T14:54:50.787Z,28.50
2017-07-03T14:57:19.036Z,28.10
2017-07-03T14:59:46.509Z,28.10
2017-07-03T15:02:14.771Z,27.50
2017-07-03T15:04:42.242Z,27.50
2017-07-03T15:07:10.498Z,26.80
2017-07-03T15:09:37.971Z,26.80
2017-07-03T15:12:06.230Z,26.00
2017-07-03T15:14:33.706Z,26.00
2017-07-03T15:17:01.967Z,25.50
2017-07-03T15:19:29.443Z,25.50
2017-07-03T15:21:56.935Z,25.50
2017-07-03T15:24:24.413Z,25.70
2017-07-03T15:26:51.894Z,25.80
2017-07-03T15:29:20.136Z,25.80
2017-07-03T15:31:47.643Z,25.80
2017-07-03T15:34:15.124Z,25.70
2017-07-03T15:36:42.604Z,25.70
2017-07-03T15:39:10.147Z,25.90
2017-07-03T15:41:37.623Z,26.00
2017-07-03T15:44:05.119Z,25.70
2017-07-03T15:46:32.592Z,25.70
2017-07-03T15:49:00.083Z,25.60
2017-07-03T15:51:27.568Z,25.30
2017-07-03T15:53:55.060Z,25.20
2017-07-03T15:56:22.566Z,25.00
2017-07-03T15:58:50.818Z,25.00
2017-07-03T16:01:18.287Z,25.00
2017-07-03T16:03:46.542Z,25.30
2017-07-03T16:06:14.007Z,25.30
2017-07-03T16:08:41.515Z,25.30
2017-07-03T16:11:08.987Z,25.20
2017-07-03T16:13:36.457Z,25.20
2017-07-03T16:16:03.950Z,25.30
2017-07-03T16:18:31.425Z,25.20
2017-07-03T16:20:58.914Z,25.20
2017-07-03T16:23:26.386Z,25.20
2017-07-03T16:25:53.874Z,25.20
2017-07-03T16:28:21.349Z,25.20
2017-07-03T16:30:48.838Z,25.40
2017-07-03T16:33:16.306Z,25.30
2017-07-03T16:35:43.792Z,25.30
2017-07-03T16:38:11.258Z,25.30
2017-07-03T16:40:38.754Z,25.20
2017-07-03T16:43:06.230Z,25.30
2017-07-03T16:45:33.709Z,25.40
2017-07-03T16:48:01.183Z,25.40
2017-07-03T16:50:28.678Z,25.30
2017-07-03T16:52:56.162Z,25.30
2017-07-03T16:55:24.411Z,25.20
2017-07-03T16:57:52.714Z,25.20
2017-07-03T17:00:20.192Z,25.20
2017-07-03T17:02:47.685Z,25.10
2017-07-03T17:05:15.918Z,24.90
2017-07-03T17:07:43.406Z,24.90
2017-07-03T17:10:10.871Z,24.80
2017-07-03T17:12:38.363Z,24.80
2017-07-03T17:15:05.843Z,24.80
2017-07-03T17:17:33.331Z,24.90
2017-07-03T17:20:00.803Z,24.80
2017-07-03T17:22:28.295Z,24.80
2017-07-03T17:24:55.772Z,24.80
2017-07-03T17:27:23.276Z,24.80
2017-07-03T17:29:51.515Z,24.60
2017-07-03T17:32:19.003Z,24.60
2017-07-03T17:34:47.250Z,24.50
2017-07-03T17:37:14.767Z,24.50
2017-07-03T17:39:42.247Z,24.40
2017-07-03T17:42:09.739Z,24.40
2017-07-03T17:44:38.013Z,24.30
2017-07-03T17:47:06.283Z,24.30
2017-07-03T17:49:33.769Z,24.30
2017-07-03T17:52:01.275Z,24.30
2017-07-03T17:54:28.743Z,24.20
2017-07-03T17:56:56.211Z,24.30
2017-07-03T17:59:24.467Z,24.20
2017-07-03T18:01:51.939Z,24.20
2017-07-03T18:04:19.427Z,24.20
2017-07-03T18:06:46.911Z,24.10
2017-07-03T18:09:14.403Z,24.10
2017-07-03T18:11:42.647Z,24.10
2017-07-03T18:14:10.148Z,24.20
2017-07-03T18:16:37.623Z,24.20
2017-07-03T18:19:05.132Z,24.10
2017-07-03T18:21:33.365Z,23.80
2017-07-03T18:24:00.875Z,23.80
2017-07-03T18:26:28.352Z,23.80
2017-07-03T18:28:55.838Z,23.80
2017-07-03T18:31:23.307Z,23.70
2017-07-03T18:33:52.428Z,23.70
2017-07-03T18:36:20.699Z,23.60
2017-07-03T18:38:48.954Z,23.50
2017-07-03T18:41:16.516Z,23.40
2017-07-03T18:43:44.900Z,23.50
2017-07-03T18:46:13.142Z,23.30
2017-07-03T18:48:40.633Z,23.30
2017-07-03T18:51:08.866Z,23.10
2017-07-03T18:53:36.347Z,23.10
2017-07-03T18:56:04.615Z,23.10
2017-07-03T18:58:32.086Z,23.10
2017-07-03T19:00:59.587Z,23.10
2017-07-03T19:03:27.059Z,23.00
2017-07-03T19:05:54.548Z,23.00
2017-07-03T19:08:22.802Z,22.90
2017-07-03T19:10:50.295Z,22.90
2017-07-03T19:13:17.778Z,22.80
2017-07-03T19:15:45.267Z,22.80
2017-07-03T19:18:12.739Z,22.70
2017-07-03T19:20:41.003Z,22.50
2017-07-03T19:23:09.250Z,22.40
2017-07-03T19:25:36.740Z,22.40
2017-07-03T19:28:04.980Z,22.30
2017-07-03T19:30:32.471Z,22.30
2017-07-03T19:33:00.709Z,22.30
2017-07-03T19:35:28.199Z,22.20
2017-07-03T19:37:56.438Z,22.00
2017-07-03T19:40:23.910Z,22.00
2017-07-03T19:42:52.169Z,21.90
2017-07-03T19:45:19.671Z,21.90
2017-07-03T19:47:47.171Z,21.90
2017-07-03T19:50:14.657Z,21.80
2017-07-03T19:52:42.920Z,21.60
2017-07-03T19:55:10.414Z,21.60
2017-07-03T19:57:37.923Z,21.60
2017-07-03T20:00:05.405Z,21.70
2017-07-03T20:02:32.887Z,21.60
2017-07-03T20:05:00.379Z,21.60
2017-07-03T20:07:27.851Z,21.50
2017-07-03T20:09:56.103Z,21.40
2017-07-03T20:12:23.582Z,21.40
2017-07-03T20:14:51.835Z,21.40
2017-07-03T20:17:19.311Z,21.40
2017-07-03T20:19:47.577Z,21.10
2017-07-03T20:22:15.823Z,21.10
2017-07-03T20:24:43.308Z,21.10
2017-07-03T20:27:11.546Z,21.00
2017-07-03T20:29:39.040Z,20.90
2017-07-03T20:32:07.295Z,21.00
2017-07-03T20:34:34.796Z,21.00
2017-07-03T20:37:02.273Z,20.90
2017-07-03T20:39:29.762Z,21.00
2017-07-03T20:41:57.248Z,20.80
2017-07-03T20:44:24.743Z,20.80
2017-07-03T20:46:52.216Z,20.70
2017-07-03T20:49:19.715Z,20.70
2017-07-03T20:51:47.184Z,20.80
2017-07-03T20:54:14.676Z,20.80
2017-07-03T20:56:42.150Z,20.90
2017-07-03T20:59:09.647Z,20.90
2017-07-03T21:01:37.123Z,20.90
2017-07-03T21:04:04.631Z,20.80
2017-07-03T21:06:32.867Z,20.70
2017-07-03T21:09:00.339Z,20.70
2017-07-03T21:11:27.830Z,20.60
2017-07-03T21:13:55.351Z,20.60
2017-07-03T21:16:23.614Z,20.50
2017-07-03T21:18:51.084Z,20.50
2017-07-03T21:21:18.572Z,20.50
2017-07-03T21:23:46.039Z,20.60
2017-07-03T21:26:13.553Z,20.60
2017-07-03T21:28:41.792Z,20.50
2017-07-03T21:31:09.291Z,20.50
2017-07-03T21:33:37.525Z,20.40
2017-07-03T21:36:05.019Z,20.40
2017-07-03T21:38:32.494Z,20.40
2017-07-03T21:40:59.988Z,20.40
2017-07-03T21:43:27.464Z,20.40
2017-07-03T21:45:55.711Z,20.40
2017-07-03T21:48:23.207Z,20.40
2017-07-03T21:50:51.443Z,20.40
2017-07-03T21:53:18.943Z,20.40
2017-07-03T21:55:46.411Z,20.40
2017-07-03T21:58:13.906Z,20.40
2017-07-03T22:00:41.379Z,20.40
2017-07-03T22:03:08.884Z,20.40
2017-07-03T22:05:36.359Z,20.40
2017-07-03T22:08:03.858Z,20.30
2017-07-03T22:10:31.328Z,20.30
2017-07-03T22:12:58.826Z,20.20
2017-07-03T22:15:26.298Z,20.20
2017-07-03T22:17:53.787Z,20.20
2017-07-03T22:20:21.260Z,20.20
2017-07-03T22:22:48.754Z,20.20
2017-07-03T22:25:16.228Z,20.30
2017-07-03T22:27:43.699Z,20.30
2017-07-03T22:30:11.960Z,20.20
2017-07-03T22:32:39.430Z,20.20
2017-07-03T22:35:07.697Z,20.10
2017-07-03T22:37:35.936Z,20.20
2017-07-03T22:40:03.426Z,20.20
2017-07-03T22:42:31.671Z,20.10
2017-07-03T22:44:59.162Z,20.10
2017-07-03T22:47:27.395Z,20.10
2017-07-03T22:49:54.891Z,20.10
2017-07-03T22:52:23.130Z,20.10
2017-07-03T22:54:50.626Z,20.00
2017-07-03T22:57:18.095Z,20.00
2017-07-03T22:59:45.567Z,20.00
2017-07-03T23:02:13.065Z,20.10
2017-07-03T23:04:40.543Z,20.10
2017-07-03T23:07:08.035Z,20.10
2017-07-03T23:09:35.515Z,20.10
2017-07-03T23:12:03.009Z,20.00
2017-07-03T23:14:31.258Z,19.90
2017-07-03T23:16:58.751Z,19.90
2017-07-03T23:19:26.248Z,19.90
2017-07-03T23:21:53.743Z,20.00
2017-07-03T23:24:21.981Z,20.00
2017-07-03T23:26:49.481Z,20.00
2017-07-03T23:29:16.960Z,20.00
2017-07-03T23:31:44.435Z,20.10
2017-07-03T23:34:11.927Z,20.10
2017-07-03T23:36:39.403Z,20.10
2017-07-03T23:39:06.890Z,20.10
2017-07-03T23:41:34.370Z,20.10
2017-07-03T23:44:01.860Z,19.90
2017-07-03T23:46:29.331Z,19.90
2017-07-03T23:48:56.823Z,19.90
2017-07-03T23:51:24.300Z,19.90
2017-07-03T23:53:51.786Z,19.80
2017-07-03T23:56:19.281Z,19.80
2017-07-03T23:58:46.784Z,19.70
